createdAt,value
2022-12-31T00:00:17.581Z,996.68
2022-12-31T00:01:17.587Z,996.60
2022-12-31T00:02:17.720Z,996.55
2022-12-31T00:03:17.723Z,996.60
2022-12-31T00:04:17.567Z,996.60
2022-12-31T00:05:17.550Z,996.62
2022-12-31T00:06:17.496Z,996.56
2022-12-31T00:07:17.469Z,996.50
2022-12-31T00:08:17.445Z,996.56
2022-12-31T00:09:17.489Z,996.52
2022-12-31T00:10:17.461Z,996.56
2022-12-31T00:11:17.424Z,996.59
2022-12-31T00:12:17.392Z,996.54
2022-12-31T00:13:17.428Z,996.57
2022-12-31T00:14:17.381Z,996.57
2022-12-31T00:15:17.353Z,996.64
2022-12-31T00:16:17.500Z,996.59
2022-12-31T00:17:17.333Z,996.51
2022-12-31T00:18:17.313Z,996.50
2022-12-31T00:19:17.320Z,996.52
2022-12-31T00:20:17.295Z,996.57
2022-12-31T00:21:17.318Z,996.54
2022-12-31T00:22:17.263Z,996.50
2022-12-31T00:23:17.375Z,996.53
2022-12-31T00:24:17.249Z,996.46
2022-12-31T00:25:17.226Z,996.50
2022-12-31T00:26:17.268Z,996.47
2022-12-31T00:27:17.206Z,996.46
2022-12-31T00:28:17.189Z,996.46
2022-12-31T00:29:17.186Z,996.47
2022-12-31T00:30:17.212Z,996.43
2022-12-31T00:31:17.175Z,996.40
2022-12-31T00:32:17.148Z,996.37
2022-12-31T00:33:17.119Z,996.41
2022-12-31T00:34:17.126Z,996.38
2022-12-31T00:35:17.098Z,996.39
2022-12-31T00:36:17.081Z,996.37
2022-12-31T00:37:17.060Z,996.35
2022-12-31T00:38:17.052Z,996.35
2022-12-31T00:39:17.043Z,996.32
2022-12-31T00:40:17.011Z,996.38
2022-12-31T00:41:17.028Z,996.39
2022-12-31T00:42:16.998Z,996.35
2022-12-31T00:43:16.976Z,996.30
2022-12-31T00:44:17.021Z,996.35
2022-12-31T00:45:16.969Z,996.35
2022-12-31T00:46:17.004Z,996.34
2022-12-31T00:47:16.927Z,996.38
2022-12-31T00:48:16.963Z,996.35
2022-12-31T00:49:16.924Z,996.36
2022-12-31T00:50:16.915Z,996.38
2022-12-31T00:51:16.885Z,996.40
2022-12-31T00:52:16.875Z,996.39
2022-12-31T00:53:16.863Z,996.40
2022-12-31T00:54:16.856Z,996.41
2022-12-31T00:55:16.828Z,996.41
2022-12-31T00:56:16.812Z,996.35
2022-12-31T00:57:16.805Z,996.38
2022-12-31T00:58:16.779Z,996.34
2022-12-31T00:59:16.787Z,996.33
2022-12-31T01:00:16.767Z,996.31
2022-12-31T01:01:16.808Z,996.30
2022-12-31T01:02:16.908Z,996.32
2022-12-31T01:03:16.756Z,996.30
2022-12-31T01:04:16.838Z,996.30
2022-12-31T01:05:16.754Z,996.28
2022-12-31T01:06:16.683Z,996.22
2022-12-31T01:11:28.464Z,996.12
2022-12-31T01:12:26.690Z,996.07
2022-12-31T01:13:26.704Z,996.07
2022-12-31T01:14:26.680Z,996.05
2022-12-31T01:15:26.714Z,996.15
2022-12-31T01:16:26.652Z,996.00
2022-12-31T01:17:26.663Z,996.04
2022-12-31T01:18:47.777Z,995.95
2022-12-31T01:19:26.644Z,995.96
2022-12-31T01:20:26.670Z,995.99
2022-12-31T01:21:26.591Z,996.01
2022-12-31T01:22:26.588Z,996.04
2022-12-31T01:23:26.549Z,995.99
2022-12-31T01:24:26.556Z,995.96
2022-12-31T01:25:26.515Z,995.97
2022-12-31T01:26:26.488Z,996.01
2022-12-31T01:27:26.546Z,996.00
2022-12-31T01:28:26.488Z,996.05
2022-12-31T01:29:26.564Z,996.04
2022-12-31T01:30:26.498Z,996.03
2022-12-31T01:31:26.554Z,996.04
2022-12-31T01:32:26.528Z,996.03
2022-12-31T01:33:26.457Z,995.99
2022-12-31T01:34:26.438Z,995.95
2022-12-31T01:35:26.460Z,996.00
2022-12-31T01:36:26.819Z,996.02
2022-12-31T01:37:26.418Z,995.96
2022-12-31T01:38:26.397Z,996.02
2022-12-31T01:39:26.328Z,996.10
2022-12-31T01:40:26.358Z,996.11
2022-12-31T01:41:26.323Z,996.05
2022-12-31T01:42:26.329Z,996.02
2022-12-31T01:43:26.327Z,996.03
2022-12-31T01:44:26.367Z,996.18
2022-12-31T01:45:26.291Z,996.11
2022-12-31T01:46:26.306Z,996.01
2022-12-31T01:47:26.258Z,995.92
2022-12-31T01:48:26.303Z,995.97
2022-12-31T01:52:36.319Z,995.93
2022-12-31T01:53:16.232Z,995.85
2022-12-31T01:54:16.188Z,995.81
2022-12-31T01:55:16.199Z,995.85
2022-12-31T01:56:16.229Z,995.95
2022-12-31T01:57:16.160Z,995.99
2022-12-31T01:58:16.167Z,996.02
2022-12-31T01:59:16.225Z,995.96
2022-12-31T02:00:16.130Z,995.99
2022-12-31T02:01:16.147Z,996.01
2022-12-31T02:02:16.147Z,995.97
2022-12-31T02:03:16.128Z,995.95
2022-12-31T02:04:16.060Z,995.96
2022-12-31T02:05:16.120Z,995.89
2022-12-31T02:06:16.039Z,995.82
2022-12-31T02:07:16.013Z,995.86
2022-12-31T02:08:16.076Z,995.84
2022-12-31T02:09:16.010Z,995.87
2022-12-31T02:10:15.990Z,995.89
2022-12-31T02:11:16.026Z,995.87
2022-12-31T02:12:15.968Z,995.92
2022-12-31T02:13:15.993Z,995.89
2022-12-31T02:14:16.022Z,995.83
2022-12-31T02:15:15.967Z,995.78
2022-12-31T02:16:15.958Z,995.76
2022-12-31T02:17:15.900Z,995.75
2022-12-31T02:18:15.962Z,995.73
2022-12-31T02:19:15.921Z,995.74
2022-12-31T02:20:15.894Z,995.76
2022-12-31T02:21:15.848Z,995.71
2022-12-31T02:22:15.869Z,995.67
2022-12-31T02:23:15.899Z,995.67
2022-12-31T02:24:15.796Z,995.60
2022-12-31T02:25:15.904Z,995.61
2022-12-31T02:26:15.793Z,995.56
2022-12-31T02:27:15.774Z,995.54
2022-12-31T02:28:15.744Z,995.51
2022-12-31T02:29:15.724Z,995.49
2022-12-31T02:30:15.770Z,995.43
2022-12-31T02:31:16.927Z,995.52
2022-12-31T02:32:15.679Z,995.57
2022-12-31T02:33:15.682Z,995.56
2022-12-31T02:34:15.705Z,995.50
2022-12-31T02:35:15.664Z,995.52
2022-12-31T02:36:15.679Z,995.51
2022-12-31T02:37:15.665Z,995.57
2022-12-31T02:38:15.622Z,995.49
2022-12-31T02:39:15.591Z,995.54
2022-12-31T02:40:15.620Z,995.45
2022-12-31T02:41:15.593Z,995.44
2022-12-31T02:42:15.594Z,995.47
2022-12-31T02:43:15.540Z,995.46
2022-12-31T02:44:15.543Z,995.46
2022-12-31T02:45:15.525Z,995.45
2022-12-31T02:46:15.625Z,995.50
2022-12-31T02:47:15.492Z,995.55
2022-12-31T02:48:15.505Z,995.59
2022-12-31T02:49:15.501Z,995.50
2022-12-31T02:50:15.507Z,995.50
2022-12-31T02:51:15.491Z,995.50
2022-12-31T02:52:15.459Z,995.53
2022-12-31T02:53:15.456Z,995.50
2022-12-31T02:54:15.434Z,995.48
2022-12-31T02:55:15.413Z,995.38
2022-12-31T02:56:15.407Z,995.43
2022-12-31T02:57:15.381Z,995.37
2022-12-31T02:58:15.352Z,995.41
2022-12-31T02:59:15.370Z,995.36
2022-12-31T03:00:15.395Z,995.41
2022-12-31T03:01:15.511Z,995.46
2022-12-31T03:02:15.572Z,995.45
2022-12-31T03:03:15.346Z,995.41
2022-12-31T03:04:15.263Z,995.34
2022-12-31T03:05:15.303Z,995.38
2022-12-31T03:06:15.316Z,995.27
2022-12-31T03:07:15.414Z,995.30
2022-12-31T03:08:15.214Z,995.29
2022-12-31T03:09:15.196Z,995.27
2022-12-31T03:10:15.222Z,995.31
2022-12-31T03:11:15.230Z,995.28
2022-12-31T03:12:15.189Z,995.31
2022-12-31T03:13:15.144Z,995.17
2022-12-31T03:14:15.170Z,995.19
2022-12-31T03:15:15.160Z,995.15
2022-12-31T03:16:15.178Z,995.17
2022-12-31T03:17:15.081Z,995.22
2022-12-31T03:18:15.084Z,995.25
2022-12-31T03:19:15.112Z,995.26
2022-12-31T03:20:15.081Z,995.32
2022-12-31T03:21:15.086Z,995.54
2022-12-31T03:22:15.053Z,995.82
2022-12-31T03:23:15.011Z,996.02
2022-12-31T03:24:15.041Z,996.29
2022-12-31T03:25:14.991Z,996.41
2022-12-31T03:26:15.049Z,996.56
2022-12-31T03:27:14.996Z,996.70
2022-12-31T03:28:14.952Z,996.48
2022-12-31T03:29:14.935Z,996.39
2022-12-31T03:30:14.970Z,996.44
2022-12-31T03:31:15.052Z,996.38
2022-12-31T03:32:14.891Z,996.34
2022-12-31T03:33:14.879Z,996.39
2022-12-31T03:34:14.924Z,996.41
2022-12-31T03:35:14.892Z,996.46
2022-12-31T03:36:14.850Z,996.44
2022-12-31T03:37:14.830Z,996.52
2022-12-31T03:38:14.871Z,996.57
2022-12-31T03:39:14.841Z,996.55
2022-12-31T03:40:15.980Z,996.50
2022-12-31T03:41:14.783Z,996.48
2022-12-31T03:42:14.756Z,996.47
2022-12-31T03:43:14.810Z,996.50
2022-12-31T03:44:14.778Z,996.52
2022-12-31T03:45:14.752Z,996.50
2022-12-31T03:46:14.806Z,996.56
2022-12-31T03:47:14.688Z,996.61
2022-12-31T03:48:14.732Z,996.63
2022-12-31T03:56:06.657Z,996.44
2022-12-31T03:56:44.746Z,996.43
2022-12-31T03:57:44.734Z,996.42
2022-12-31T03:58:44.760Z,996.42
2022-12-31T03:59:44.742Z,996.37
2022-12-31T04:00:44.734Z,996.41
2022-12-31T04:01:44.983Z,996.41
2022-12-31T04:02:44.750Z,996.38
2022-12-31T04:03:44.673Z,996.42
2022-12-31T04:04:44.677Z,996.38
2022-12-31T04:05:44.674Z,996.42
2022-12-31T04:06:44.680Z,996.36
2022-12-31T04:07:44.639Z,996.32
2022-12-31T04:08:44.599Z,996.29
2022-12-31T04:09:44.596Z,996.30
2022-12-31T04:10:44.603Z,996.31
2022-12-31T04:11:44.606Z,996.30
2022-12-31T04:12:44.528Z,996.29
2022-12-31T04:13:44.555Z,996.25
2022-12-31T04:14:44.529Z,996.21
2022-12-31T04:15:44.539Z,996.26
2022-12-31T04:16:44.586Z,996.24
2022-12-31T04:17:44.552Z,996.22
2022-12-31T04:18:44.468Z,996.23
2022-12-31T04:19:44.505Z,996.20
2022-12-31T04:20:44.416Z,996.19
2022-12-31T04:21:44.506Z,996.16
2022-12-31T04:22:44.522Z,996.15
2022-12-31T04:23:44.419Z,996.16
2022-12-31T04:24:44.407Z,996.17
2022-12-31T04:25:44.433Z,996.31
2022-12-31T04:26:44.392Z,996.27
2022-12-31T04:27:44.387Z,996.18
2022-12-31T04:28:44.384Z,996.22
2022-12-31T04:29:44.302Z,996.25
2022-12-31T04:30:44.283Z,996.21
2022-12-31T04:31:44.385Z,996.21
2022-12-31T04:32:44.324Z,996.18
2022-12-31T04:33:44.311Z,996.17
2022-12-31T04:34:44.239Z,996.20
2022-12-31T04:35:44.223Z,996.23
2022-12-31T04:36:44.206Z,996.19
2022-12-31T04:37:44.219Z,996.25
2022-12-31T04:38:44.189Z,996.17
2022-12-31T04:39:44.243Z,996.15
2022-12-31T04:40:44.179Z,996.12
2022-12-31T04:41:44.199Z,996.11
2022-12-31T04:42:44.141Z,996.09
2022-12-31T04:43:44.180Z,996.08
2022-12-31T04:44:44.101Z,996.10
2022-12-31T04:45:44.123Z,996.11
2022-12-31T04:46:44.082Z,996.05
2022-12-31T04:47:44.082Z,996.08
2022-12-31T04:48:44.049Z,996.08
2022-12-31T04:49:44.051Z,996.04
2022-12-31T04:50:44.015Z,995.99
2022-12-31T04:51:44.011Z,996.00
2022-12-31T04:52:44.008Z,995.98
2022-12-31T04:53:44.038Z,995.94
2022-12-31T04:54:43.988Z,995.97
2022-12-31T04:55:43.958Z,995.97
2022-12-31T04:56:43.943Z,995.95
2022-12-31T04:57:44.109Z,995.86
2022-12-31T05:05:35.291Z,995.94
2022-12-31T05:06:36.273Z,995.99
2022-12-31T05:07:36.293Z,996.00
2022-12-31T05:08:36.266Z,995.94
2022-12-31T05:09:36.211Z,996.00
2022-12-31T05:10:36.260Z,996.01
2022-12-31T05:11:36.195Z,995.99
2022-12-31T05:12:36.226Z,995.93
2022-12-31T05:13:36.193Z,996.03
2022-12-31T05:14:36.164Z,995.94
2022-12-31T05:15:36.214Z,995.97
2022-12-31T05:16:36.354Z,995.86
2022-12-31T05:55:30.136Z,995.54
2022-12-31T05:56:31.105Z,995.59
2022-12-31T05:57:31.100Z,995.49
2022-12-31T05:58:31.378Z,995.56
2022-12-31T05:59:31.088Z,995.50
2022-12-31T06:00:31.067Z,995.64
2022-12-31T06:01:31.132Z,995.62
2022-12-31T06:02:31.008Z,995.66
2022-12-31T06:03:31.122Z,995.59
2022-12-31T06:04:31.007Z,995.63
2022-12-31T06:05:31.033Z,995.51
2022-12-31T06:06:31.014Z,995.54
2022-12-31T06:07:30.924Z,995.74
2022-12-31T06:08:30.924Z,995.69
2022-12-31T06:09:30.952Z,995.70
2022-12-31T06:10:30.955Z,995.73
2022-12-31T06:11:30.949Z,995.84
2022-12-31T06:12:30.952Z,995.82
2022-12-31T06:13:30.924Z,995.83
2022-12-31T06:14:30.873Z,995.78
2022-12-31T06:15:30.964Z,995.90
2022-12-31T06:16:30.891Z,995.94
2022-12-31T06:17:30.788Z,995.91
2022-12-31T06:18:30.796Z,996.01
2022-12-31T06:19:30.818Z,996.00
2022-12-31T06:20:30.846Z,996.02
2022-12-31T06:21:30.836Z,996.01
2022-12-31T06:22:30.782Z,996.04
2022-12-31T06:23:30.779Z,996.04
2022-12-31T06:24:30.698Z,996.10
2022-12-31T06:25:30.698Z,996.06
2022-12-31T06:26:30.682Z,995.96
2022-12-31T06:27:30.676Z,996.22
2022-12-31T06:28:30.722Z,996.11
2022-12-31T06:29:30.646Z,996.08
2022-12-31T06:30:30.677Z,996.25
2022-12-31T06:31:30.654Z,996.29
2022-12-31T06:32:30.600Z,996.34
2022-12-31T06:33:30.612Z,996.31
2022-12-31T06:34:30.619Z,996.35
2022-12-31T06:35:30.649Z,996.34
2022-12-31T06:36:30.573Z,996.58
2022-12-31T06:37:30.537Z,996.63
2022-12-31T06:38:30.572Z,996.51
2022-12-31T06:39:30.515Z,996.52
2022-12-31T06:40:30.509Z,996.47
2022-12-31T06:41:30.519Z,996.65
2022-12-31T06:42:30.472Z,996.57
2022-12-31T06:43:30.492Z,996.54
2022-12-31T06:44:30.469Z,996.68
2022-12-31T06:45:30.471Z,996.57
2022-12-31T06:46:30.454Z,996.61
2022-12-31T06:47:30.407Z,996.77
2022-12-31T06:48:30.391Z,996.65
2022-12-31T06:49:30.410Z,996.68
2022-12-31T06:50:30.390Z,996.69
2022-12-31T06:51:30.349Z,996.69
2022-12-31T06:52:30.339Z,996.79
2022-12-31T06:53:30.350Z,996.68
2022-12-31T06:54:30.317Z,996.68
2022-12-31T06:55:30.311Z,996.69
2022-12-31T06:56:34.284Z,996.60
2022-12-31T06:57:30.277Z,996.57
2022-12-31T06:58:30.267Z,996.58
2022-12-31T06:59:30.344Z,996.72
2022-12-31T07:00:30.296Z,996.72
2022-12-31T07:01:30.432Z,996.74
2022-12-31T07:02:30.319Z,996.72
2022-12-31T07:03:30.274Z,996.72
2022-12-31T07:04:30.218Z,996.62
2022-12-31T07:05:30.169Z,996.81
2022-12-31T07:06:30.172Z,996.78
2022-12-31T07:07:30.147Z,996.72
2022-12-31T07:08:30.175Z,996.59
2022-12-31T07:09:30.160Z,996.75
2022-12-31T07:10:30.266Z,996.61
2022-12-31T07:11:30.115Z,996.62
2022-12-31T07:12:30.083Z,996.75
2022-12-31T07:13:30.120Z,996.63
2022-12-31T07:14:30.055Z,996.78
2022-12-31T07:15:30.047Z,996.77
2022-12-31T07:16:30.084Z,996.85
2022-12-31T07:17:30.059Z,996.84
2022-12-31T07:18:29.986Z,996.85
2022-12-31T07:19:30.044Z,996.69
2022-12-31T07:20:29.997Z,996.70
2022-12-31T07:21:29.993Z,996.78
2022-12-31T07:22:29.925Z,996.64
2022-12-31T07:23:29.953Z,996.87
2022-12-31T07:24:29.936Z,996.82
2022-12-31T07:25:29.937Z,996.71
2022-12-31T07:26:29.916Z,996.80
2022-12-31T07:27:29.943Z,996.95
2022-12-31T07:28:29.899Z,996.95
2022-12-31T07:29:29.873Z,996.99
2022-12-31T07:30:29.825Z,996.91
2022-12-31T07:31:29.914Z,996.85
2022-12-31T07:32:29.837Z,996.87
2022-12-31T07:33:29.807Z,996.88
2022-12-31T07:34:29.777Z,996.95
2022-12-31T07:35:34.781Z,996.84
2022-12-31T07:36:29.755Z,996.93
2022-12-31T07:37:29.745Z,996.95
2022-12-31T07:38:29.757Z,996.88
2022-12-31T07:39:29.781Z,996.81
2022-12-31T07:40:29.703Z,996.91
2022-12-31T07:41:29.692Z,996.99
2022-12-31T07:42:29.696Z,996.94
2022-12-31T07:43:29.658Z,996.78
2022-12-31T07:44:29.731Z,996.88
2022-12-31T07:45:29.630Z,996.92
2022-12-31T07:46:29.669Z,996.93
2022-12-31T07:47:29.657Z,996.85
2022-12-31T07:48:29.618Z,996.99
2022-12-31T07:49:29.578Z,996.88
2022-12-31T07:50:29.620Z,996.80
2022-12-31T07:51:29.564Z,996.90
2022-12-31T07:52:29.577Z,996.81
2022-12-31T07:53:29.543Z,996.83
2022-12-31T07:54:29.530Z,996.87
2022-12-31T07:55:29.617Z,996.99
2022-12-31T07:56:29.519Z,996.95
2022-12-31T07:57:29.478Z,996.92
2022-12-31T07:58:29.502Z,996.92
2022-12-31T08:02:00.388Z,996.89
2022-12-31T08:02:59.512Z,996.98
2022-12-31T08:03:59.420Z,996.92
2022-12-31T08:04:59.469Z,996.97
2022-12-31T08:05:59.391Z,996.91
2022-12-31T08:06:59.389Z,996.96
2022-12-31T08:07:59.405Z,997.00
2022-12-31T08:08:59.393Z,997.06
2022-12-31T08:09:59.332Z,996.97
2022-12-31T08:10:59.334Z,997.00
2022-12-31T08:11:59.372Z,997.08
2022-12-31T08:12:59.324Z,997.02
2022-12-31T08:13:59.305Z,996.90
2022-12-31T08:14:59.294Z,997.12
2022-12-31T08:15:59.300Z,997.06
2022-12-31T08:16:59.234Z,997.09
2022-12-31T08:17:59.278Z,997.21
2022-12-31T08:18:59.203Z,997.09
2022-12-31T08:19:59.212Z,997.18
2022-12-31T08:20:59.235Z,997.14
2022-12-31T08:21:59.196Z,997.27
2022-12-31T08:22:59.157Z,997.13
2022-12-31T08:23:59.162Z,997.17
2022-12-31T08:24:59.147Z,997.15
2022-12-31T08:25:59.154Z,997.14
2022-12-31T08:26:59.138Z,997.24
2022-12-31T08:27:59.114Z,997.29
2022-12-31T08:28:59.110Z,997.19
2022-12-31T08:29:59.066Z,997.18
2022-12-31T08:30:59.124Z,997.25
2022-12-31T08:31:59.143Z,997.31
2022-12-31T08:32:59.023Z,997.29
2022-12-31T08:34:05.366Z,997.16
2022-12-31T08:34:59.018Z,997.24
2022-12-31T08:35:59.047Z,997.25
2022-12-31T08:36:58.968Z,997.22
2022-12-31T08:37:58.974Z,997.21
2022-12-31T08:54:02.681Z,997.17
2022-12-31T08:55:01.669Z,997.15
2022-12-31T08:56:01.687Z,997.16
2022-12-31T08:57:01.656Z,997.32
2022-12-31T08:58:01.647Z,997.11
2022-12-31T08:59:01.641Z,997.18
2022-12-31T09:00:01.616Z,997.23
2022-12-31T09:01:01.758Z,997.25
2022-12-31T09:02:01.720Z,997.19
2022-12-31T09:03:01.563Z,997.34
2022-12-31T09:04:01.657Z,997.28
2022-12-31T09:05:01.564Z,997.31
2022-12-31T09:06:01.557Z,997.31
2022-12-31T09:07:01.509Z,997.24
2022-12-31T09:08:01.508Z,997.29
2022-12-31T09:09:01.484Z,997.29
2022-12-31T09:10:01.484Z,997.40
2022-12-31T09:11:02.590Z,997.14
2022-12-31T09:12:01.497Z,997.23
2022-12-31T09:13:01.438Z,997.32
2022-12-31T09:14:01.432Z,997.20
2022-12-31T09:15:01.417Z,997.23
2022-12-31T09:16:01.408Z,997.24
2022-12-31T09:17:01.416Z,997.33
2022-12-31T09:18:01.372Z,997.28
2022-12-31T09:19:01.355Z,997.29
2022-12-31T09:20:01.352Z,997.39
2022-12-31T09:21:01.410Z,997.18
2022-12-31T09:22:01.323Z,997.23
2022-12-31T09:23:01.308Z,997.38
2022-12-31T09:24:06.023Z,997.42
2022-12-31T09:25:01.291Z,997.35
2022-12-31T09:26:01.470Z,997.64
2022-12-31T09:27:01.265Z,997.63
2022-12-31T09:28:01.267Z,997.48
2022-12-31T09:29:01.260Z,997.42
2022-12-31T09:30:01.222Z,997.59
2022-12-31T09:31:01.229Z,997.62
2022-12-31T09:32:01.246Z,997.63
2022-12-31T09:33:01.670Z,997.60
2022-12-31T09:34:01.167Z,997.66
2022-12-31T09:35:01.137Z,997.64
2022-12-31T09:36:01.121Z,997.82
2022-12-31T09:37:01.121Z,997.83
2022-12-31T09:38:04.117Z,997.89
2022-12-31T09:39:01.107Z,997.90
2022-12-31T09:40:01.087Z,997.99
2022-12-31T09:41:01.056Z,997.96
2022-12-31T09:42:01.079Z,998.03
2022-12-31T09:43:01.041Z,998.06
2022-12-31T09:44:01.628Z,998.02
2022-12-31T09:45:01.008Z,997.88
2022-12-31T09:46:01.004Z,997.86
2022-12-31T09:47:00.984Z,998.11
2022-12-31T09:48:00.972Z,998.09
2022-12-31T09:49:00.961Z,998.14
2022-12-31T09:50:00.937Z,998.16
2022-12-31T09:51:00.931Z,998.21
2022-12-31T09:52:00.925Z,998.32
2022-12-31T09:53:00.903Z,998.20
2022-12-31T09:54:00.887Z,998.33
2022-12-31T09:55:00.963Z,998.42
2022-12-31T09:56:00.954Z,998.37
2022-12-31T09:57:00.935Z,998.37
2022-12-31T09:58:00.885Z,998.63
2022-12-31T09:59:00.874Z,998.43
2022-12-31T10:00:00.852Z,998.58
2022-12-31T10:01:00.945Z,998.67
2022-12-31T10:02:01.100Z,998.67
2022-12-31T10:03:00.869Z,998.73
2022-12-31T10:04:00.761Z,998.86
2022-12-31T10:05:00.740Z,998.74
2022-12-31T10:06:00.723Z,998.79
2022-12-31T10:07:00.725Z,998.81
2022-12-31T10:08:00.692Z,998.76
2022-12-31T10:09:00.724Z,998.82
2022-12-31T10:10:00.706Z,998.83
2022-12-31T10:11:00.658Z,998.83
2022-12-31T10:12:00.735Z,998.76
2022-12-31T10:13:00.627Z,998.95
2022-12-31T10:14:00.632Z,999.01
2022-12-31T10:15:00.605Z,999.03
2022-12-31T10:16:00.640Z,998.95
2022-12-31T10:17:00.688Z,999.04
2022-12-31T10:18:00.632Z,998.90
2022-12-31T10:19:00.581Z,998.99
2022-12-31T10:20:00.542Z,998.97
2022-12-31T10:21:00.517Z,998.89
2022-12-31T10:22:00.518Z,998.85
2022-12-31T10:23:00.511Z,998.86
2022-12-31T10:24:00.522Z,998.89
2022-12-31T10:25:00.473Z,998.93
2022-12-31T10:26:00.496Z,998.84
2022-12-31T10:27:00.471Z,998.94
2022-12-31T10:28:00.433Z,999.03
2022-12-31T10:29:00.445Z,999.18
2022-12-31T10:30:00.409Z,998.96
2022-12-31T10:31:00.461Z,998.87
2022-12-31T10:37:58.431Z,999.07
2022-12-31T10:38:59.405Z,999.02
2022-12-31T10:39:59.434Z,999.08
2022-12-31T10:40:59.402Z,999.06
2022-12-31T10:41:59.401Z,999.01
2022-12-31T10:42:59.380Z,998.99
2022-12-31T10:43:59.373Z,999.12
2022-12-31T10:44:59.340Z,999.07
2022-12-31T10:45:59.384Z,998.98
2022-12-31T10:46:59.317Z,999.07
2022-12-31T10:47:59.305Z,999.00
2022-12-31T10:48:59.291Z,998.96
2022-12-31T10:49:59.289Z,998.88
2022-12-31T10:50:59.248Z,999.02
2022-12-31T10:51:59.254Z,998.85
2022-12-31T10:52:59.234Z,998.99
2022-12-31T10:53:59.221Z,999.03
2022-12-31T10:54:59.185Z,999.01
2022-12-31T10:55:59.188Z,998.97
2022-12-31T10:56:59.173Z,998.91
2022-12-31T10:58:04.032Z,999.05
2022-12-31T10:58:59.231Z,998.93
2022-12-31T10:59:59.179Z,999.07
2022-12-31T11:00:59.290Z,998.96
2022-12-31T11:01:59.325Z,998.94
2022-12-31T11:02:59.219Z,999.01
2022-12-31T11:03:59.139Z,999.02
2022-12-31T11:04:59.065Z,999.00
2022-12-31T11:05:59.163Z,999.03
2022-12-31T11:06:59.049Z,998.99
2022-12-31T11:07:59.105Z,998.98
2022-12-31T11:08:59.033Z,999.01
2022-12-31T11:09:59.004Z,999.04
2022-12-31T11:10:59.037Z,999.00
2022-12-31T11:11:58.996Z,998.86
2022-12-31T11:12:58.964Z,998.96
2022-12-31T11:13:58.994Z,998.90
2022-12-31T11:14:58.947Z,999.00
2022-12-31T11:15:58.990Z,998.98
2022-12-31T11:16:58.937Z,998.92
2022-12-31T11:17:58.897Z,998.88
2022-12-31T11:18:58.883Z,998.89
2022-12-31T11:19:58.872Z,998.97
2022-12-31T11:20:58.852Z,998.89
2022-12-31T11:21:59.972Z,998.93
2022-12-31T11:22:59.005Z,998.88
2022-12-31T11:23:58.843Z,998.90
2022-12-31T11:24:58.813Z,998.89
2022-12-31T11:25:58.804Z,998.80
2022-12-31T11:26:58.794Z,998.83
2022-12-31T11:27:58.799Z,998.84
2022-12-31T11:28:58.774Z,998.79
2022-12-31T11:29:58.782Z,998.79
2022-12-31T11:30:58.774Z,998.77
2022-12-31T11:31:58.719Z,998.82
2022-12-31T11:32:58.712Z,998.73
2022-12-31T11:33:58.683Z,998.66
2022-12-31T11:34:58.698Z,998.65
2022-12-31T11:35:58.674Z,998.65
2022-12-31T11:36:58.641Z,998.69
2022-12-31T11:37:58.687Z,998.72
2022-12-31T11:38:58.660Z,998.74
2022-12-31T11:39:58.607Z,998.80
2022-12-31T11:40:58.614Z,998.84
2022-12-31T11:41:58.574Z,998.88
2022-12-31T11:42:58.580Z,998.77
2022-12-31T11:43:58.559Z,998.78
2022-12-31T11:44:58.576Z,998.79
2022-12-31T11:45:58.561Z,998.82
2022-12-31T11:46:58.520Z,998.75
2022-12-31T11:48:58.487Z,998.86
2022-12-31T11:49:58.465Z,998.83
2022-12-31T11:50:58.455Z,998.85
2022-12-31T11:51:58.447Z,998.74
2022-12-31T11:52:58.461Z,998.84
2022-12-31T11:53:58.417Z,998.69
2022-12-31T11:54:58.391Z,998.85
2022-12-31T11:55:58.387Z,998.83
2022-12-31T11:56:58.393Z,998.87
2022-12-31T11:57:58.358Z,998.82
2022-12-31T11:58:58.350Z,998.82
2022-12-31T11:59:58.333Z,998.86
2022-12-31T12:00:58.352Z,998.83
2022-12-31T12:01:58.314Z,998.89
2022-12-31T12:02:58.301Z,998.86
2022-12-31T12:03:58.329Z,998.94
2022-12-31T12:04:58.260Z,998.88
2022-12-31T12:05:58.254Z,998.83
2022-12-31T12:06:58.257Z,998.90
2022-12-31T12:07:58.224Z,998.78
2022-12-31T12:08:58.225Z,998.96
2022-12-31T12:09:58.197Z,998.90
2022-12-31T12:10:58.182Z,998.89
2022-12-31T12:11:58.181Z,998.83
2022-12-31T12:12:58.153Z,998.85
2022-12-31T12:13:58.229Z,998.89
2022-12-31T12:14:58.142Z,998.84
2022-12-31T12:15:58.151Z,998.88
2022-12-31T12:17:04.366Z,998.90
2022-12-31T12:17:59.061Z,998.94
2022-12-31T12:18:58.087Z,998.95
2022-12-31T12:19:58.075Z,998.96
2022-12-31T12:20:58.077Z,998.87
2022-12-31T12:21:58.036Z,998.94
2022-12-31T12:22:58.018Z,998.93
2022-12-31T12:23:58.042Z,998.95
2022-12-31T12:27:48.004Z,998.87
2022-12-31T12:40:33.794Z,998.96
2022-12-31T12:41:20.772Z,998.91
2022-12-31T12:46:47.627Z,998.93
2022-12-31T12:47:36.601Z,998.96
2022-12-31T12:49:51.138Z,998.97
2022-12-31T12:50:51.993Z,998.98
2022-12-31T12:51:52.025Z,998.95
2022-12-31T12:52:56.369Z,998.96
2022-12-31T12:53:52.012Z,998.94
2022-12-31T12:54:52.037Z,999.04
2022-12-31T12:56:13.149Z,998.98
2022-12-31T12:56:51.945Z,999.06
2022-12-31T12:57:51.946Z,999.01
2022-12-31T12:58:51.917Z,998.96
2022-12-31T12:59:51.965Z,999.07
2022-12-31T13:00:51.984Z,999.14
2022-12-31T13:03:16.708Z,999.13
2022-12-31T13:05:06.679Z,999.20
2022-12-31T13:06:06.565Z,999.10
2022-12-31T13:07:06.625Z,999.04
2022-12-31T13:08:07.778Z,998.99
2022-12-31T13:09:06.572Z,999.07
2022-12-31T13:10:07.795Z,999.14
2022-12-31T13:11:06.606Z,999.14
2022-12-31T13:12:07.991Z,999.18
2022-12-31T13:13:23.957Z,999.13
2022-12-31T13:14:06.455Z,999.16
2022-12-31T13:15:06.436Z,999.28
2022-12-31T13:16:06.468Z,999.27
2022-12-31T13:17:06.468Z,999.15
2022-12-31T13:18:06.458Z,999.31
2022-12-31T13:19:06.401Z,999.29
2022-12-31T13:20:06.432Z,999.28
2022-12-31T13:21:06.402Z,999.35
2022-12-31T13:22:06.383Z,999.41
2022-12-31T13:23:06.371Z,999.40
2022-12-31T13:24:06.320Z,999.36
2022-12-31T13:25:06.329Z,999.33
2022-12-31T13:26:06.288Z,999.27
2022-12-31T13:27:06.293Z,999.22
2022-12-31T13:28:06.274Z,999.27
2022-12-31T13:29:06.281Z,999.36
2022-12-31T13:30:06.260Z,999.35
2022-12-31T13:31:07.128Z,999.36
2022-12-31T13:32:06.559Z,999.36
2022-12-31T13:33:06.199Z,999.42
2022-12-31T13:34:06.197Z,999.41
2022-12-31T13:35:06.233Z,999.42
2022-12-31T13:36:06.157Z,999.35
2022-12-31T13:37:06.160Z,999.37
2022-12-31T13:38:06.377Z,999.31
2022-12-31T13:39:06.114Z,999.26
2022-12-31T13:40:06.128Z,999.20
2022-12-31T13:41:06.137Z,999.16
2022-12-31T13:42:06.081Z,999.15
2022-12-31T13:43:06.072Z,999.14
2022-12-31T13:44:27.271Z,999.23
2022-12-31T13:45:06.059Z,999.16
2022-12-31T13:46:06.055Z,999.34
2022-12-31T13:47:06.060Z,999.22
2022-12-31T13:48:05.982Z,999.34
2022-12-31T13:49:05.984Z,999.32
2022-12-31T13:50:10.876Z,999.37
2022-12-31T13:51:05.964Z,999.31
2022-12-31T13:52:05.965Z,999.36
2022-12-31T13:53:05.946Z,999.32
2022-12-31T13:54:05.906Z,999.35
2022-12-31T13:55:05.889Z,999.37
2022-12-31T13:56:05.875Z,999.39
2022-12-31T13:57:05.879Z,999.45
2022-12-31T13:58:05.848Z,999.37
2022-12-31T13:59:05.840Z,999.41
2022-12-31T14:00:05.840Z,999.40
2022-12-31T14:01:05.929Z,999.46
2022-12-31T14:02:05.958Z,999.41
2022-12-31T14:03:05.853Z,999.51
2022-12-31T14:04:05.770Z,999.47
2022-12-31T14:05:05.780Z,999.44
2022-12-31T14:06:05.779Z,999.41
2022-12-31T14:07:05.754Z,999.37
2022-12-31T14:08:05.743Z,999.40
2022-12-31T14:09:05.931Z,999.23
2022-12-31T14:10:05.740Z,999.40
2022-12-31T14:11:05.684Z,999.31
2022-12-31T14:12:07.031Z,999.25
2022-12-31T14:13:05.703Z,999.40